EBOSELLX

Guest
Details From EBOS - Oostende
To ELLX - Luxembourg
Flight Number -
Tags generated
Created
Modified
Stats Distance 159 nm / 294 km
Max Altitude 19,200 ft / 5,852 m
Waypoints 3
Social Downloads 0
Likes 0
Share VATSIM

Download

Looking for another format? Having issues loading an existing format? Contact us
Advertisement - Login to hide

Notes

Basic altitude profile: - Ascent Rate: 2500ft/min - Ascent Speed: 250kts - Cruise Altitude: 35000ft - Cruise Speed: 420kts - Descent Rate: 1500ft/min - Descent Speed: 250kts

Route

EBOS SISGA ELLX

ID Type Via Altitude Latitude Longitude Leg Dist Tot Dist Heading (true) Name
O EBOS APT - 0 ft / 0 m 51.19997˚ 2.87501˚ - 0 nm - Oostende
SISGA FIX - 19,200 ft / 5,852 m 50.61797˚ 4.05657˚ 56 nm 56 nm 128° / 128° -
O ELLX APT - 0 ft / 0 m 49.62660˚ 6.21151˚ 102 nm 158 nm 125° / 126° Luxembourg

Altitude Profile

Advertisement - Login to hide

EBOS

Details ICAO EBOS (OST)
Name Oostende
Region Belgium
Timezone Europe/Brussels (UTC+2.0)
Stats Elevation 13 ft / 4 m (AMSL)
Location 51.199967° 2.875008°
Runways 1
Magnetic Variation 0.651° E

METAR

EBOS 240020Z 03003KT 4500 BR FEW030 15/13 Q1020 NOSIG

Decode

TAF

TAF EBOS 232320Z 2400/2506 05008KT 6000 FEW040 PROB40 TEMPO 2400/2408 3200 BR PROB30 TEMPO 2414/2421 3800 SHRA TSRA PROB40 TEMPO 2501/2506 0100 FG BKN001

Decode

Departure Runways

ID Width Length Bearing (true) Bearing (mag) Surface Threshold Offset Overrun Length
08 148 ft / 45 m 10,515 ft / 3,205 m 76.36° 75.71° Asphalt 984 ft / 300 m 0 ft / 0 m
26 148 ft / 45 m 10,515 ft / 3,205 m 256.39° 255.74° Asphalt 1,362 ft / 415 m 0 ft / 0 m

ELLX

Details ICAO ELLX (LUX)
Name Luxembourg
Region Luxembourg
Timezone Europe/Luxembourg (UTC+2.0)
Stats Elevation 1,158 ft / 353 m (AMSL)
Location 49.626599° 6.211506°
Runways 1
Magnetic Variation 1.747° E

METAR

ELLX 240020Z AUTO 05009KT 9999 BKN082/// 15/13 Q1019 NOSIG

Decode

TAF

TAF ELLX 232300Z 2400/2506 03005KT 9999 SCT040 BECMG 2406/2409 15010KT TEMPO 2412/2418 15015G25KT 4500 SHRA BKN012CB PROB30 TEMPO 2413/2416 TSRA PROB30 TEMPO 2500/2506 15005KT 3000 BR

Decode

Destination Runways

ID Width Length Bearing (true) Bearing (mag) Surface Threshold Offset Overrun Length
06 197 ft / 60 m 13,135 ft / 4,004 m 60.14° 58.39° Asphalt 0 ft / 0 m 0 ft / 0 m
24 197 ft / 60 m 13,135 ft / 4,004 m 240.18° 238.43° Asphalt 0 ft / 0 m 180 ft / 55 m

Approach Navaids

Runway Type Ident Frequency Range Bearing (true) Bearing (mag) Slope Elevation
06 Localiser ILE 109.90 MHz 18 nm / 33 km 60.21° 58.46° - 1,158 ft / 353 m (AMSL)
06 Glidescope ILE 109.90 MHz 10 nm / 19 km 60.16° 58.41° 3.00° 1,158 ft / 353 m (AMSL)
06 DME ILE 109.90 MHz 18 nm / 33 km - - - 1,158 ft / 353 m (AMSL)
24 Localiser ILW 110.70 MHz 18 nm / 33 km 239.94° 238.19° - 1,158 ft / 353 m (AMSL)
24 Glidescope ILW 110.70 MHz 10 nm / 19 km 240.16° 238.41° 3.00° 1,158 ft / 353 m (AMSL)
24 DME ILW 110.70 MHz 18 nm / 33 km - - - 1,158 ft / 353 m (AMSL)

Popular Alternatives